Time;durP1;ratioP1;P1;durP2;ratioP2;P2;SDS_P1;SDS_P2;PMS_P1;PMS_P2;Temp;Humidity;BMP_temperature;BMP_pressure;BME280_temperature;BME280_humidity;BME280_pressure;Samples;Min_cycle;Max_cycle;Signal;HPM_P1;HPM_P2
2023/08/09 00:01:34;;;;;;;2.00;1.80;;;20.00;75.90;20.90;100379.00;;;;6210156;23;20172;-58
2023/08/09 00:04:00;;;;;;;2.07;1.90;;;20.00;76.00;20.90;100379.00;;;;6210145;23;20163;-59
2023/08/09 00:06:26;;;;;;;2.07;1.97;;;19.90;75.80;20.90;100376.00;;;;6210620;23;20540;-59
2023/08/09 00:08:52;;;;;;;2.17;1.90;;;19.90;75.80;20.80;100392.00;;;;6210282;23;20182;-59
2023/08/09 00:11:18;;;;;;;1.90;1.80;;;19.90;75.80;20.90;100383.00;;;;6208703;23;20250;-59
2023/08/09 00:13:43;;;;;;;2.00;1.80;;;19.90;75.80;20.90;100378.00;;;;6210271;23;20633;-59
2023/08/09 00:16:09;;;;;;;2.17;1.90;;;19.90;75.80;20.90;100373.00;;;;6183531;23;20193;-59
2023/08/09 00:18:35;;;;;;;2.40;2.00;;;19.90;75.90;20.90;100353.00;;;;6208500;23;20194;-59
2023/08/09 00:21:01;;;;;;;1.80;1.70;;;19.90;75.90;20.90;100366.00;;;;6208268;23;20253;-58
2023/08/09 00:23:28;;;;;;;1.90;1.80;;;19.90;76.00;20.90;100363.00;;;;6208755;23;20146;-58
2023/08/09 00:25:54;;;;;;;2.57;1.93;;;19.90;76.00;20.90;100380.00;;;;6210585;23;20160;-59
2023/08/09 00:28:20;;;;;;;5.40;2.00;;;19.90;76.10;20.90;100367.00;;;;6210643;23;20208;-59
2023/08/09 00:30:46;;;;;;;1.80;1.70;;;19.90;76.20;20.90;100368.00;;;;6208266;23;20175;-59
2023/08/09 00:33:12;;;;;;;1.87;1.77;;;19.90;76.30;20.90;100366.00;;;;6210353;23;20483;-59
2023/08/09 00:35:39;;;;;;;2.27;1.90;;;19.90;76.30;20.80;100365.00;;;;6210030;23;20147;-59
2023/08/09 00:38:04;;;;;;;2.00;1.90;;;19.90;76.30;20.80;100363.00;;;;6210413;23;20144;-59
2023/08/09 00:40:31;;;;;;;2.20;2.00;;;19.90;76.40;20.80;100361.00;;;;6209841;23;20174;-58
2023/08/09 00:42:57;;;;;;;2.00;1.90;;;19.90;76.30;20.80;100352.00;;;;6210196;23;20227;-59
2023/08/09 00:45:22;;;;;;;2.30;1.80;;;19.90;76.40;20.80;100359.00;;;;6208503;23;20187;-58
2023/08/09 00:47:48;;;;;;;1.93;1.83;;;19.90;76.30;20.90;100358.00;;;;6210024;23;20168;-58
2023/08/09 00:50:14;;;;;;;2.00;1.80;;;19.80;76.30;20.80;100369.00;;;;6208006;23;20180;-58
2023/08/09 00:52:39;;;;;;;1.90;1.80;;;19.80;76.20;20.80;100364.00;;;;6208628;23;20180;-58
2023/08/09 00:55:06;;;;;;;1.90;1.70;;;19.90;76.30;20.80;100367.00;;;;6208312;23;20145;-59
2023/08/09 00:57:32;;;;;;;1.70;1.60;;;19.80;76.20;20.80;100365.00;;;;6183572;23;20146;-58
2023/08/09 00:59:58;;;;;;;2.00;1.80;;;19.90;76.30;20.80;100368.00;;;;6209498;23;20189;-58
2023/08/09 01:02:24;;;;;;;1.77;1.67;;;19.80;76.30;20.80;100356.00;;;;6209646;23;20606;-58
2023/08/09 01:04:49;;;;;;;1.70;1.60;;;19.80;76.30;20.80;100362.00;;;;6208350;23;20148;-65
2023/08/09 01:07:32;;;;;;;1.67;1.57;;;19.80;76.20;20.80;100309.00;;;;6208402;23;20153;-58
2023/08/09 01:10:29;;;;;;;2.00;1.80;;;19.80;76.30;20.80;100363.00;;;;6211347;23;20211;-58
2023/08/09 01:12:58;;;;;;;2.00;1.80;;;19.80;76.30;20.70;100370.00;;;;6208436;23;20161;-58
2023/08/09 01:15:24;;;;;;;1.90;1.80;;;19.80;76.30;20.80;100373.00;;;;6208517;23;20233;-58
2023/08/09 01:17:51;;;;;;;1.80;1.70;;;19.80;76.30;20.70;100370.00;;;;6208179;23;20152;-59
2023/08/09 01:20:18;;;;;;;2.00;1.80;;;19.80;76.30;20.70;100381.00;;;;6207860;23;20252;-59
2023/08/09 01:23:00;;;;;;;1.90;1.80;;;19.80;76.30;20.70;100393.00;;;;6208788;23;20742;-59
2023/08/09 01:25:26;;;;;;;1.90;1.77;;;19.80;76.40;20.80;100392.00;;;;6209890;23;20198;-58
2023/08/09 01:27:52;;;;;;;2.00;1.80;;;19.80;76.30;20.80;100396.00;;;;6208312;23;20170;-59
2023/08/09 01:30:18;;;;;;;1.80;1.70;;;19.80;76.30;20.80;100392.00;;;;6209593;23;20174;-59
2023/08/09 01:32:43;;;;;;;1.80;1.70;;;19.80;76.30;20.70;100402.00;;;;6208240;23;20159;-58
2023/08/09 01:35:09;;;;;;;1.80;1.70;;;19.80;76.30;20.70;100400.00;;;;6208184;23;20166;-58
2023/08/09 01:38:03;;;;;;;1.80;1.70;;;19.80;76.30;20.70;100397.00;;;;6208067;23;20153;-57
2023/08/09 01:40:29;;;;;;;1.60;1.50;;;19.80;76.30;20.70;100407.00;;;;6203591;23;20174;-58
2023/08/09 01:42:54;;;;;;;1.70;1.60;;;19.80;76.30;20.70;100401.00;;;;6208060;23;20151;-58
2023/08/09 01:45:20;;;;;;;1.80;1.70;;;19.80;76.30;20.70;100397.00;;;;6208273;23;20613;-59
2023/08/09 01:47:46;;;;;;;1.70;1.60;;;19.80;76.30;20.70;100407.00;;;;6207988;23;20148;-59
2023/08/09 01:50:24;;;;;;;1.77;1.67;;;19.70;76.30;20.70;100408.00;;;;6207675;23;20179;-58
2023/08/09 01:52:55;;;;;;;1.93;1.77;;;19.80;76.40;20.70;100409.00;;;;6207706;23;20135;-59
2023/08/09 01:55:21;;;;;;;1.70;1.60;;;19.70;76.30;20.60;100422.00;;;;6209722;23;20133;-58
2023/08/09 01:57:47;;;;;;;1.80;1.63;;;19.70;76.30;20.70;100425.00;;;;6210855;23;20150;-59
2023/08/09 02:00:19;;;;;;;1.73;1.63;;;19.80;76.40;20.70;100416.00;;;;6211254;23;20259;-59
2023/08/09 02:02:45;;;;;;;1.80;1.70;;;19.80;76.30;20.70;100421.00;;;;6211542;23;20652;-58
2023/08/09 02:05:11;;;;;;;2.67;1.90;;;19.70;76.20;20.70;100428.00;;;;6211586;23;20595;-59
2023/08/09 02:07:37;;;;;;;1.97;1.70;;;19.80;76.30;20.60;100423.00;;;;6211402;23;20147;-61
2023/08/09 02:10:04;;;;;;;1.70;1.60;;;19.80;76.20;20.70;100420.00;;;;6211131;23;20176;-60
2023/08/09 02:12:30;;;;;;;1.80;1.70;;;19.70;76.10;20.60;100414.00;;;;6209911;23;20241;-58
2023/08/09 02:14:56;;;;;;;1.87;1.77;;;19.70;76.10;20.60;100427.00;;;;6184864;23;20756;-59
2023/08/09 02:17:22;;;;;;;1.70;1.60;;;19.70;76.10;20.60;100434.00;;;;6211466;23;20144;-59
2023/08/09 02:19:48;;;;;;;1.90;1.80;;;19.70;76.10;20.70;100435.00;;;;6211159;23;20197;-60
2023/08/09 02:22:17;;;;;;;1.73;1.63;;;19.70;76.10;20.70;100432.00;;;;6184508;23;20151;-60
2023/08/09 02:24:43;;;;;;;1.83;1.70;;;19.60;76.00;20.60;100425.00;;;;6211184;23;20150;-59
2023/08/09 02:27:09;;;;;;;1.70;1.60;;;19.70;76.20;20.60;100445.00;;;;6211594;23;20154;-60
2023/08/09 02:29:36;;;;;;;1.70;1.60;;;19.70;76.20;20.60;100428.00;;;;6211171;23;20490;-60
2023/08/09 02:32:02;;;;;;;1.70;1.60;;;19.70;76.10;20.60;100424.00;;;;6211390;23;20181;-60
2023/08/09 02:34:28;;;;;;;1.90;1.80;;;19.70;76.10;20.60;100430.00;;;;6184580;23;20153;-60
2023/08/09 02:36:54;;;;;;;1.60;1.50;;;19.70;76.10;20.60;100423.00;;;;6211342;23;20479;-60
2023/08/09 02:39:20;;;;;;;1.70;1.60;;;19.70;76.10;20.60;100420.00;;;;6210865;23;20638;-60
2023/08/09 02:41:46;;;;;;;1.70;1.60;;;19.70;76.10;20.60;100426.00;;;;6210967;23;20258;-60
2023/08/09 02:44:12;;;;;;;1.80;1.70;;;19.70;76.20;20.60;100426.00;;;;6210971;23;20181;-60
2023/08/09 02:46:38;;;;;;;1.60;1.50;;;19.70;76.10;20.60;100429.00;;;;6211041;23;20243;-60
2023/08/09 02:49:03;;;;;;;1.63;1.53;;;19.70;76.20;20.60;100442.00;;;;6210961;23;20536;-60
2023/08/09 02:51:29;;;;;;;1.70;1.60;;;19.60;76.20;20.60;100448.00;;;;6208869;23;20524;-59
2023/08/09 02:54:03;;;;;;;1.80;1.70;;;19.60;76.20;20.50;100456.00;;;;6210771;23;20210;-60
2023/08/09 02:56:29;;;;;;;1.47;1.37;;;19.60;76.20;20.60;100459.00;;;;6210955;23;20221;-59
2023/08/09 02:58:55;;;;;;;1.87;1.70;;;19.70;77.10;20.60;100460.00;;;;6210828;23;20205;-60
2023/08/09 03:01:24;;;;;;;1.80;1.70;;;19.70;76.30;20.60;100458.00;;;;6211319;23;20177;-59
2023/08/09 03:03:51;;;;;;;1.63;1.53;;;19.60;76.10;20.60;100465.00;;;;6212293;23;20616;-59
2023/08/09 03:06:22;;;;;;;1.63;1.53;;;19.60;77.00;20.60;100467.00;;;;6212425;23;20154;-59
2023/08/09 03:08:48;;;;;;;1.70;1.60;;;19.70;76.30;20.60;100470.00;;;;6210965;23;20574;-59
2023/08/09 03:11:14;;;;;;;1.77;1.67;;;19.60;76.20;20.60;100462.00;;;;6211120;23;20180;-60
2023/08/09 03:13:40;;;;;;;1.50;1.40;;;19.60;76.20;20.60;100462.00;;;;6185032;23;20169;-59
2023/08/09 03:16:06;;;;;;;1.70;1.60;;;19.60;76.20;20.60;100448.00;;;;6211574;23;20146;-59
2023/08/09 03:18:31;;;;;;;1.57;1.47;;;19.60;76.20;20.60;100459.00;;;;6211597;23;20206;-59
2023/08/09 03:20:57;;;;;;;1.50;1.40;;;19.60;76.20;20.50;100456.00;;;;6211365;23;20199;-59
2023/08/09 03:23:23;;;;;;;1.67;1.50;;;19.60;76.20;20.50;100458.00;;;;6211405;23;20156;-59
2023/08/09 03:25:49;;;;;;;1.80;1.70;;;19.60;76.30;20.50;100453.00;;;;6213284;23;20154;-57
2023/08/09 03:28:15;;;;;;;1.60;1.50;;;19.60;76.30;20.50;100456.00;;;;6184526;23;20157;-58
2023/08/09 03:30:41;;;;;;;1.83;1.70;;;19.60;76.60;20.50;100466.00;;;;6210848;23;20187;-57
2023/08/09 03:33:06;;;;;;;1.67;1.57;;;19.60;76.60;20.50;100471.00;;;;6211637;23;20176;-58
2023/08/09 03:35:32;;;;;;;2.10;1.50;;;19.60;76.60;20.60;100487.00;;;;6209834;23;20145;-59
2023/08/09 03:37:58;;;;;;;1.60;1.50;;;19.60;76.40;20.60;100476.00;;;;6210951;23;20216;-58
2023/08/09 03:40:24;;;;;;;1.40;1.40;;;19.60;76.40;20.50;100486.00;;;;6209661;23;20741;-59
2023/08/09 03:42:49;;;;;;;2.00;1.67;;;19.60;76.50;20.50;100480.00;;;;6209550;23;20157;-59
2023/08/09 03:45:17;;;;;;;2.77;1.40;;;19.60;76.60;20.50;100498.00;;;;6209940;23;20150;-58
2023/08/09 03:47:43;;;;;;;1.50;1.40;;;19.60;76.60;20.50;100498.00;;;;6209491;23;20151;-58
2023/08/09 03:50:10;;;;;;;3.07;1.57;;;19.50;76.50;20.50;100499.00;;;;6210894;23;20744;-58
2023/08/09 03:52:36;;;;;;;1.80;1.70;;;19.50;76.50;20.50;100507.00;;;;6211950;23;20154;-58
2023/08/09 03:55:02;;;;;;;1.60;1.50;;;19.50;76.40;20.50;100501.00;;;;6211849;23;20153;-58
2023/08/09 03:57:28;;;;;;;1.50;1.40;;;19.60;76.50;20.50;100511.00;;;;6211408;23;20224;-59
2023/08/09 03:59:54;;;;;;;2.57;1.67;;;19.60;76.40;20.50;100521.00;;;;6211160;23;20210;-58
2023/08/09 04:02:20;;;;;;;1.20;1.20;;;19.50;76.40;20.50;100506.00;;;;6211258;23;20490;-58
2023/08/09 04:04:47;;;;;;;1.83;1.60;;;19.50;76.40;20.50;100506.00;;;;6211496;23;20173;-58
2023/08/09 04:07:13;;;;;;;1.63;1.53;;;19.50;76.20;20.50;100517.00;;;;6211902;23;20146;-58
2023/08/09 04:09:38;;;;;;;1.80;1.70;;;19.60;76.30;20.40;100510.00;;;;6211040;23;20238;-58
2023/08/09 04:12:05;;;;;;;1.97;1.50;;;19.50;76.20;20.40;100524.00;;;;6184836;23;20189;-58
2023/08/09 04:14:31;;;;;;;1.70;1.60;;;19.50;76.20;20.40;100523.00;;;;6211576;23;20167;-58
2023/08/09 04:16:59;;;;;;;1.70;1.60;;;19.50;76.20;20.40;100534.00;;;;6211460;23;20172;-59
2023/08/09 04:19:26;;;;;;;1.60;1.50;;;19.50;76.20;20.40;100526.00;;;;6211001;23;20152;-57
2023/08/09 04:21:52;;;;;;;1.50;1.40;;;19.50;76.20;20.40;100534.00;;;;6211634;23;20153;-58
2023/08/09 04:24:18;;;;;;;2.17;1.50;;;19.50;76.20;20.40;100530.00;;;;6211324;23;20160;-58
2023/08/09 04:26:44;;;;;;;1.80;1.70;;;19.50;76.40;20.40;100540.00;;;;6211279;23;20151;-59
2023/08/09 04:29:10;;;;;;;1.63;1.53;;;19.50;76.40;20.50;100547.00;;;;6211121;23;20551;-59
2023/08/09 04:31:36;;;;;;;1.67;1.57;;;19.50;76.40;20.50;100542.00;;;;6209297;23;20212;-58
2023/08/09 04:34:02;;;;;;;1.60;1.50;;;19.50;76.40;20.40;100531.00;;;;6211035;23;20154;-58
2023/08/09 04:36:28;;;;;;;3.53;1.60;;;19.50;76.40;20.40;100537.00;;;;6211026;23;20178;-58
2023/08/09 04:38:54;;;;;;;1.83;1.60;;;19.50;76.50;20.40;100547.00;;;;6211157;23;20194;-58
2023/08/09 04:41:20;;;;;;;1.60;1.50;;;19.50;76.50;20.40;100543.00;;;;6210412;23;20168;-58
2023/08/09 04:43:46;;;;;;;1.73;1.63;;;19.50;76.50;20.40;100554.00;;;;6182081;23;20157;-58
2023/08/09 04:46:12;;;;;;;3.43;1.60;;;19.50;76.40;20.40;100556.00;;;;6208988;23;20633;-58
2023/08/09 04:48:38;;;;;;;4.43;1.80;;;19.50;76.40;20.40;100554.00;;;;6210637;23;20149;-59
2023/08/09 04:51:05;;;;;;;2.73;1.70;;;19.50;76.40;20.40;100555.00;;;;6210290;23;20224;-59
2023/08/09 04:53:31;;;;;;;3.93;1.90;;;19.40;76.40;20.40;100568.00;;;;6210579;23;20149;-59
2023/08/09 04:55:56;;;;;;;2.17;1.70;;;19.40;76.40;20.40;100574.00;;;;6209410;23;20155;-59
2023/08/09 04:58:22;;;;;;;4.73;1.90;;;19.40;76.40;20.40;100570.00;;;;6211066;23;20229;-59
2023/08/09 05:00:48;;;;;;;3.13;1.47;;;19.40;76.50;20.40;100581.00;;;;6210494;23;20653;-60
2023/08/09 05:03:13;;;;;;;2.03;1.70;;;19.40;76.50;20.40;100582.00;;;;6183891;23;20239;-59
2023/08/09 05:05:39;;;;;;;2.10;1.50;;;19.50;76.60;20.40;100580.00;;;;6211542;23;20149;-57
2023/08/09 05:08:05;;;;;;;3.43;1.90;;;19.50;77.30;20.40;100579.00;;;;6214665;23;20150;-58
2023/08/09 05:10:31;;;;;;;2.83;1.80;;;19.40;76.50;20.40;100587.00;;;;6210531;23;20179;-58
2023/08/09 05:12:56;;;;;;;4.20;1.60;;;19.50;76.70;20.40;100582.00;;;;6210228;23;20156;-58
2023/08/09 05:15:22;;;;;;;1.87;1.60;;;19.40;76.60;20.40;100583.00;;;;6210658;23;20169;-59
2023/08/09 05:17:48;;;;;;;4.23;1.73;;;19.50;76.70;20.40;100592.00;;;;6210613;23;20855;-59
2023/08/09 05:20:15;;;;;;;4.93;1.80;;;19.40;76.60;20.40;100589.00;;;;6211420;23;20203;-59
2023/08/09 05:22:41;;;;;;;2.77;1.30;;;19.40;76.50;20.30;100596.00;;;;6213156;23;20175;-59
2023/08/09 05:25:07;;;;;;;2.33;1.80;;;19.40;77.40;20.30;100594.00;;;;6210657;23;20570;-59
2023/08/09 05:27:33;;;;;;;1.80;1.70;;;19.40;76.50;20.30;100596.00;;;;6210691;23;20175;-59
2023/08/09 05:29:59;;;;;;;3.57;1.73;;;19.40;76.50;20.30;100599.00;;;;6210373;23;20179;-59
2023/08/09 05:32:24;;;;;;;2.10;1.70;;;19.40;76.50;20.30;100602.00;;;;6211147;23;20147;-59
2023/08/09 05:34:50;;;;;;;3.17;1.73;;;19.40;76.50;20.30;100604.00;;;;6212609;23;20164;-59
2023/08/09 05:37:16;;;;;;;2.43;1.80;;;19.40;76.50;20.30;100608.00;;;;6212733;23;20177;-59
2023/08/09 05:39:42;;;;;;;2.83;1.60;;;19.40;76.50;20.30;100618.00;;;;6211922;23;20146;-58
2023/08/09 05:42:07;;;;;;;1.80;1.70;;;19.40;76.60;20.30;100615.00;;;;6211876;23;20154;-60
2023/08/09 05:44:34;;;;;;;1.70;1.60;;;19.40;76.50;20.30;100618.00;;;;6185804;23;20497;-59
2023/08/09 05:47:00;;;;;;;1.73;1.60;;;19.40;76.50;20.30;100622.00;;;;6212801;23;20159;-59
2023/08/09 05:49:26;;;;;;;3.63;1.90;;;19.40;76.50;20.30;100632.00;;;;6211960;23;20157;-58
2023/08/09 05:51:53;;;;;;;1.60;1.47;;;19.40;76.60;20.30;100639.00;;;;6210578;23;20170;-59
2023/08/09 05:54:19;;;;;;;1.70;1.60;;;19.40;76.60;20.30;100636.00;;;;6186146;23;20177;-58
2023/08/09 05:56:45;;;;;;;3.00;1.87;;;19.40;76.50;20.30;100636.00;;;;6212841;23;20492;-58
2023/08/09 05:59:11;;;;;;;2.17;1.60;;;19.40;76.50;20.30;100640.00;;;;6212471;23;20157;-58
2023/08/09 06:01:37;;;;;;;2.00;1.90;;;19.30;76.40;20.20;100643.00;;;;6211921;23;20303;-58
2023/08/09 06:04:03;;;;;;;1.83;1.73;;;19.30;76.40;20.20;100646.00;;;;6210709;23;20151;-59
2023/08/09 06:06:29;;;;;;;1.93;1.80;;;19.30;76.40;20.20;100647.00;;;;6212290;23;20177;-59
2023/08/09 06:08:55;;;;;;;1.70;1.60;;;19.30;76.40;20.20;100642.00;;;;6212440;23;20179;-59
2023/08/09 06:11:21;;;;;;;1.97;1.87;;;19.30;76.40;20.20;100653.00;;;;6211933;23;20178;-59
2023/08/09 06:13:46;;;;;;;3.97;1.90;;;19.30;76.40;20.20;100665.00;;;;6210156;23;20660;-59
2023/08/09 06:16:12;;;;;;;2.40;2.00;;;19.30;76.50;20.20;100653.00;;;;6212310;23;20169;-59
2023/08/09 06:18:38;;;;;;;1.90;1.80;;;19.30;76.40;20.10;100656.00;;;;6212080;23;20146;-59
2023/08/09 06:21:04;;;;;;;1.93;1.83;;;19.30;76.40;20.20;100659.00;;;;6211612;23;20180;-60
2023/08/09 06:23:30;;;;;;;2.10;1.90;;;19.30;76.40;20.30;100668.00;;;;6211559;23;20628;-59
2023/08/09 06:25:56;;;;;;;1.97;1.87;;;19.30;76.50;20.20;100664.00;;;;6210656;23;20333;-59
2023/08/09 06:28:22;;;;;;;2.23;2.10;;;19.30;76.50;20.20;100670.00;;;;6210996;23;20150;-59
2023/08/09 06:30:48;;;;;;;2.10;2.00;;;19.30;76.50;20.20;100674.00;;;;6211770;23;20181;-59
2023/08/09 06:33:14;;;;;;;2.20;2.00;;;19.30;76.50;20.20;100686.00;;;;6211165;23;20603;-59
2023/08/09 06:35:39;;;;;;;2.43;2.23;;;19.30;76.50;20.20;100684.00;;;;6211775;23;20147;-60
2023/08/09 06:38:05;;;;;;;2.13;2.00;;;19.30;76.50;20.20;100678.00;;;;6211906;23;20186;-59
2023/08/09 06:40:31;;;;;;;2.07;1.97;;;19.30;76.50;20.20;100682.00;;;;6211761;23;20507;-60
2023/08/09 06:42:57;;;;;;;2.13;2.03;;;19.30;76.50;20.20;100690.00;;;;6210868;23;20152;-59
2023/08/09 06:45:23;;;;;;;2.30;2.10;;;19.30;76.50;20.20;100694.00;;;;6211737;23;20616;-60
2023/08/09 06:47:48;;;;;;;2.77;2.30;;;19.30;76.50;20.20;100697.00;;;;6211714;23;20150;-59
2023/08/09 06:50:14;;;;;;;2.60;2.40;;;19.30;76.50;20.20;100701.00;;;;6211570;23;20177;-60
2023/08/09 06:52:40;;;;;;;2.50;2.30;;;19.30;76.50;20.20;100695.00;;;;6211502;23;20153;-60
2023/08/09 06:55:07;;;;;;;2.80;2.60;;;19.30;76.50;20.20;100706.00;;;;6211820;23;20147;-60
2023/08/09 06:57:34;;;;;;;2.67;2.47;;;19.30;76.50;20.20;100696.00;;;;6211953;23;20226;-59
2023/08/09 07:00:00;;;;;;;2.90;2.63;;;19.30;76.60;20.20;100696.00;;;;6211477;23;20195;-59
2023/08/09 07:02:26;;;;;;;2.80;2.60;;;19.30;76.60;20.20;100693.00;;;;6211890;23;20149;-60
2023/08/09 07:04:53;;;;;;;5.00;2.60;;;19.30;76.60;20.20;100697.00;;;;6215116;23;20148;-60
2023/08/09 07:07:22;;;;;;;2.77;2.57;;;19.30;76.80;20.20;100706.00;;;;6210308;23;20170;-59
2023/08/09 07:09:48;;;;;;;3.00;2.70;;;19.30;76.80;20.20;100708.00;;;;6209791;23;20183;-59
2023/08/09 07:12:14;;;;;;;3.10;2.80;;;19.20;76.90;20.20;100702.00;;;;6211053;23;20191;-59
2023/08/09 07:14:40;;;;;;;4.03;2.80;;;19.20;77.00;20.20;100725.00;;;;6209397;23;20148;-59
2023/08/09 07:17:07;;;;;;;5.40;3.00;;;19.20;77.00;20.20;100719.00;;;;6211365;23;20155;-60
2023/08/09 07:19:33;;;;;;;3.20;2.90;;;19.20;77.00;20.20;100736.00;;;;6213201;23;20142;-59
2023/08/09 07:21:58;;;;;;;3.93;3.03;;;19.20;77.00;20.20;100729.00;;;;6209440;23;20152;-59
2023/08/09 07:24:24;;;;;;;3.30;3.00;;;19.20;77.00;20.20;100732.00;;;;6211319;23;20215;-59
2023/08/09 07:26:50;;;;;;;3.53;3.10;;;19.30;77.00;20.20;100737.00;;;;6211343;23;20209;-59
2023/08/09 07:29:15;;;;;;;3.93;2.80;;;19.30;77.00;20.20;100747.00;;;;6211157;23;20600;-59
2023/08/09 07:31:41;;;;;;;3.73;2.90;;;19.30;76.90;20.20;100741.00;;;;6210831;23;20181;-59
2023/08/09 07:34:07;;;;;;;3.10;2.80;;;19.30;76.90;20.20;100750.00;;;;6211301;23;20150;-59
2023/08/09 07:36:33;;;;;;;4.13;3.00;;;19.30;76.90;20.20;100734.00;;;;6211617;23;20152;-59
2023/08/09 07:38:58;;;;;;;3.13;2.90;;;19.20;77.60;20.20;100745.00;;;;6211647;23;20143;-59
2023/08/09 07:41:25;;;;;;;3.03;2.73;;;19.20;76.80;20.20;100748.00;;;;6206662;23;20177;-58
2023/08/09 07:43:51;;;;;;;2.93;2.70;;;19.20;76.80;20.20;100748.00;;;;6208755;23;20202;-58
2023/08/09 07:46:16;;;;;;;3.40;3.10;;;19.20;76.80;20.20;100749.00;;;;6209818;23;20177;-58
2023/08/09 07:48:42;;;;;;;3.10;2.90;;;19.20;76.90;20.20;100754.00;;;;6208216;23;20178;-59
2023/08/09 07:51:11;;;;;;;3.13;2.90;;;19.30;77.00;20.20;100757.00;;;;6210476;23;20174;-58
2023/08/09 07:53:38;;;;;;;3.47;3.10;;;19.30;77.10;20.20;100756.00;;;;6209585;23;20221;-58
2023/08/09 07:56:04;;;;;;;3.23;2.93;;;19.20;77.00;20.20;100756.00;;;;6210447;23;20158;-59
2023/08/09 07:58:30;;;;;;;2.90;2.70;;;19.20;76.90;20.20;100760.00;;;;6209358;23;20154;-58
2023/08/09 08:00:56;;;;;;;3.30;3.00;;;19.30;77.10;20.20;100768.00;;;;6209701;23;20166;-59
2023/08/09 08:03:21;;;;;;;3.17;2.93;;;19.30;77.10;20.20;100770.00;;;;6210657;23;20152;-59
2023/08/09 08:05:47;;;;;;;3.37;3.17;;;19.20;77.00;20.20;100767.00;;;;6211139;23;20490;-59
2023/08/09 08:08:14;;;;;;;3.20;3.00;;;19.20;77.20;20.20;100767.00;;;;6211424;23;20626;-59
2023/08/09 08:10:41;;;;;;;3.17;2.87;;;19.30;77.40;20.20;100775.00;;;;6209743;23;20182;-59
2023/08/09 08:13:06;;;;;;;4.30;3.13;;;19.20;77.30;20.20;100777.00;;;;6209541;23;20211;-59
2023/08/09 08:15:32;;;;;;;3.33;3.03;;;19.20;77.40;20.20;100775.00;;;;6210186;23;20190;-59
2023/08/09 08:17:58;;;;;;;3.40;3.10;;;19.20;77.40;20.20;100777.00;;;;6210634;23;20149;-60
2023/08/09 08:20:24;;;;;;;3.43;3.13;;;19.30;77.70;20.20;100773.00;;;;6210739;23;20172;-59
2023/08/09 08:22:50;;;;;;;3.40;3.10;;;19.20;77.80;20.20;100783.00;;;;6210981;23;20155;-59
2023/08/09 08:25:17;;;;;;;3.70;3.37;;;19.30;78.00;20.30;100782.00;;;;6211027;23;20154;-59
2023/08/09 08:27:45;;;;;;;4.17;3.80;;;19.20;78.00;20.20;100775.00;;;;6208758;23;20158;-59
2023/08/09 08:30:16;;;;;;;5.57;3.90;;;19.30;78.50;20.20;100775.00;;;;6210314;23;20173;-58
2023/08/09 08:32:48;;;;;;;9.67;4.17;;;19.30;79.10;20.20;100779.00;;;;6210779;23;20129;-59
2023/08/09 08:35:19;;;;;;;4.20;3.80;;;19.30;79.20;20.30;100791.00;;;;6211104;23;20139;-59
2023/08/09 08:37:46;;;;;;;4.53;3.67;;;19.30;79.20;20.30;100787.00;;;;6209007;23;20166;-58
2023/08/09 08:40:18;;;;;;;5.07;4.07;;;19.40;79.60;20.30;100787.00;;;;6210418;23;20221;-58
2023/08/09 08:42:47;;;;;;;4.20;3.80;;;19.30;79.40;20.30;100782.00;;;;6210958;23;20169;-59
2023/08/09 08:45:15;;;;;;;6.10;3.80;;;19.30;79.70;20.30;100780.00;;;;6208839;23;20143;-60
2023/08/09 08:47:42;;;;;;;7.30;3.87;;;19.40;79.70;20.30;100787.00;;;;6211346;23;20162;-60
2023/08/09 08:50:09;;;;;;;4.57;4.00;;;19.40;79.90;20.30;100771.00;;;;6210449;23;20176;-60
2023/08/09 08:52:39;;;;;;;5.00;4.03;;;19.40;80.00;20.30;100785.00;;;;6209682;23;20202;-60
2023/08/09 08:55:06;;;;;;;4.80;4.30;;;19.40;80.10;20.40;100785.00;;;;6209058;23;20541;-60
2023/08/09 08:57:33;;;;;;;4.93;4.00;;;19.40;80.10;20.30;100780.00;;;;6210830;23;20253;-59
2023/08/09 09:00:03;;;;;;;5.40;3.90;;;19.40;80.20;20.40;100783.00;;;;6209265;23;20171;-60
2023/08/09 09:02:29;;;;;;;4.30;3.90;;;19.40;80.30;20.40;100790.00;;;;6216041;23;20387;-59
2023/08/09 09:04:54;;;;;;;4.37;4.00;;;19.40;80.30;20.40;100787.00;;;;6216483;23;20352;-60
2023/08/09 09:07:20;;;;;;;4.00;3.70;;;19.40;80.40;20.40;100796.00;;;;6212357;23;20544;-60
2023/08/09 09:09:59;;;;;;;4.33;3.93;;;19.40;80.60;20.40;100798.00;;;;6211333;23;20145;-60
2023/08/09 09:12:25;;;;;;;4.70;4.23;;;19.40;80.60;20.40;100800.00;;;;6211590;23;20306;-60
2023/08/09 09:14:54;;;;;;;5.10;4.30;;;19.40;81.00;20.40;100801.00;;;;6213319;23;20144;-59
2023/08/09 09:17:20;;;;;;;4.60;4.20;;;19.40;80.90;20.40;100804.00;;;;6219360;23;20150;-60
2023/08/09 09:19:46;;;;;;;4.90;4.50;;;19.40;80.90;20.40;100805.00;;;;6215096;23;20176;-60
2023/08/09 09:22:34;;;;;;;4.03;3.73;;;19.40;81.00;20.40;100804.00;;;;6211416;23;20147;-60
2023/08/09 09:25:00;;;;;;;4.40;4.10;;;19.50;81.30;20.40;100800.00;;;;6213335;23;20132;-60
2023/08/09 09:27:32;;;;;;;4.30;4.00;;;19.50;81.50;20.40;100806.00;;;;6212886;23;20157;-61
2023/08/09 09:30:11;;;;;;;4.70;4.30;;;19.50;81.50;20.50;100806.00;;;;6212781;23;20226;-60
2023/08/09 09:32:51;;;;;;;4.40;4.10;;;19.50;81.70;20.50;100804.00;;;;6213009;23;20138;-60
2023/08/09 09:35:21;;;;;;;5.00;4.50;;;19.50;81.90;20.40;100772.00;;;;6213173;23;20138;-60
2023/08/09 09:37:51;;;;;;;4.00;3.70;;;19.50;81.80;20.50;100804.00;;;;6213195;23;20146;-60
2023/08/09 09:40:39;;;;;;;4.77;4.37;;;19.50;81.90;20.50;100801.00;;;;6212960;23;20185;-60
2023/08/09 09:43:05;;;;;;;4.80;4.40;;;19.50;82.00;20.50;100812.00;;;;6211861;23;20184;-60
2023/08/09 09:45:31;;;;;;;4.50;4.20;;;19.50;81.90;20.50;100809.00;;;;6213100;23;20150;-61
2023/08/09 09:48:00;;;;;;;4.20;3.80;;;19.50;82.10;20.50;100814.00;;;;6213186;23;20614;-61
2023/08/09 09:50:27;;;;;;;6.73;4.10;;;19.60;82.30;20.50;100807.00;;;;6212769;23;20185;-61
2023/08/09 09:52:53;;;;;;;4.30;3.90;;;19.60;82.20;20.50;100810.00;;;;6213263;23;20239;-61
2023/08/09 09:55:20;;;;;;;4.57;4.17;;;19.60;82.40;20.60;100810.00;;;;6213095;23;20222;-60
2023/08/09 09:57:49;;;;;;;4.40;4.00;;;19.60;82.60;20.50;100815.00;;;;6212981;23;20196;-60
2023/08/09 10:00:15;;;;;;;4.50;4.10;;;19.60;82.80;20.60;100817.00;;;;6212215;23;20417;-59
2023/08/09 10:02:48;;;;;;;4.57;4.17;;;19.60;83.00;20.60;100818.00;;;;6212701;23;20623;-59
2023/08/09 10:05:19;;;;;;;4.50;4.10;;;19.60;82.90;20.60;100817.00;;;;6212497;23;20141;-59
2023/08/09 10:07:46;;;;;;;4.60;4.27;;;19.60;83.20;20.60;100809.00;;;;6211405;23;20145;-59
2023/08/09 10:10:12;;;;;;;4.50;4.10;;;19.60;83.10;20.60;100816.00;;;;6211941;23;20177;-60
2023/08/09 10:12:39;;;;;;;4.53;4.13;;;19.60;83.40;20.60;100827.00;;;;6210821;23;20254;-59
2023/08/09 10:15:06;;;;;;;4.30;3.97;;;19.70;83.30;20.60;100832.00;;;;6210853;23;20544;-59
2023/08/09 10:17:32;;;;;;;4.50;4.10;;;19.70;83.30;20.60;100844.00;;;;6211128;23;20176;-59
2023/08/09 10:19:59;;;;;;;4.43;4.10;;;19.70;82.90;20.60;100831.00;;;;6211132;23;20212;-59
2023/08/09 10:22:25;;;;;;;4.60;4.20;;;19.70;83.20;20.60;100838.00;;;;6211081;23;20613;-60
2023/08/09 10:24:51;;;;;;;4.43;4.03;;;19.70;83.30;20.70;100851.00;;;;6212762;23;20221;-59
2023/08/09 10:27:46;;;;;;;4.90;4.50;;;19.70;83.30;20.70;100844.00;;;;6211105;23;20218;-59
2023/08/09 10:30:14;;;;;;;4.40;4.00;;;19.70;83.90;20.70;100850.00;;;;6212366;23;20182;-59
2023/08/09 10:32:54;;;;;;;4.17;3.87;;;19.70;83.70;20.70;100839.00;;;;6211318;23;20559;-60
2023/08/09 10:35:40;;;;;;;4.60;4.20;;;19.60;83.70;20.70;100849.00;;;;6212655;23;20171;-60
2023/08/09 10:38:07;;;;;;;4.40;4.10;;;19.70;83.70;20.70;100849.00;;;;6211256;23;20135;-60
2023/08/09 10:40:35;;;;;;;4.20;3.90;;;19.70;83.80;20.70;100854.00;;;;6211926;23;20170;-59
2023/08/09 10:43:01;;;;;;;4.60;4.30;;;19.70;83.50;20.70;100843.00;;;;6212351;23;20187;-59
2023/08/09 10:45:27;;;;;;;4.43;4.13;;;19.80;83.80;20.80;100848.00;;;;6210738;23;20665;-59
2023/08/09 10:47:52;;;;;;;4.33;4.03;;;19.80;85.00;20.80;100844.00;;;;6210674;23;20159;-59